Pagrindinis puslapis
METAR-TAF:

METAR-TAF

Oro uostai :

Cut Bank, Montana, Jungtinės Amerikos Valstijos

platuma: 48-36-30N, ilguma: 112-22-34W, Aukštis: 1175 m

Dabartinis oras

Ataskaita buvo paskelbta 14 minutes, ne 12:56 UTC
Vėjas 5 kt iš Šiaurės
Temperatūra -21°C
Drėgmė 77%
Slėgis 1025 hPa
Matomumas: 16.1 km
Giedras dangus

METAR: KCTB 191256Z AUTO 35005KT 10SM CLR M21/M24 A3027 RMK AO2 SLP332 I1000 T12111239

Laikas: 06:10 (13:10 UTC)

Prognozė

Ataskaita buvo paskelbta 1 valandą ir 50 minutes, ne 11:20 UTC
Prognozė galioja nuo 19 metu 12 UTC su 20 metu 12 UTC
Vėjas 4 kt nuo kintamojo kryptimis
Matomumas: 10 km
Mažai debesys ne aukštis 9000 ft
Mažai debesys ne aukštis 25000 ft
Nuo 19 metu 1800 UTC
Vėjas 11 kt iš Vakarų/Pietvakarių
Matomumas: 10 km
Giedras dangus

TAF: KCTB 191120Z 1912/2012 VRB04KT P6SM FEW090 FEW250 FM191800 24011KT P6SM SKC

Orai ataskaitas ir orų prognozės (METAR, TAF).

turimą stotys yra geltonos ir raudonos taškus žemėlapyje.

Perkelti pele per norėdami pamatyti stoties vardą.

Tada spustelėkite, norėdami matyti oro stebėjimo ir prognozės.

Norėdami pakeisti žemėlapį: spustelėkite ant žalios mygtukų su juodo kryžiaus žemyn,; žalią mygtuką su brūkšneliu, jei norite nutolinti; arba žalių rodyklių gretimoms žemėlapius.


METAR-TAF: